Time;durP1;ratioP1;P1;durP2;ratioP2;P2;SDS_P1;SDS_P2;PMS_P1;PMS_P2;Temp;Humidity;BMP_temperature;BMP_pressure;BME280_temperature;BME280_humidity;BME280_pressure;Samples;Min_cycle;Max_cycle;Signal;HPM_P1;HPM_P2
2022/07/15 00:02:13;;;;;;;2.70;1.30;;;;;;;12.59;91.93;100950.88;4954131;28;20038;-76
2022/07/15 00:04:40;;;;;;;3.90;1.40;;;;;;;12.54;92.17;100948.34;4971581;28;20093;-77
2022/07/15 00:07:07;;;;;;;2.13;1.30;;;;;;;12.58;92.68;100952.66;4942578;28;20915;-76
2022/07/15 00:12:19;;;;;;;3.15;1.20;;;;;;;12.63;91.87;100952.56;4977448;28;20519;-76
2022/07/15 00:14:46;;;;;;;2.88;1.83;;;;;;;12.54;92.11;100950.13;4988298;28;20501;-76
2022/07/15 00:17:12;;;;;;;4.53;2.10;;;;;;;12.56;91.86;100943.00;4992262;28;20030;-76
2022/07/15 00:19:39;;;;;;;3.88;1.50;;;;;;;12.50;91.83;100944.00;4940104;28;20783;-77
2022/07/15 00:22:06;;;;;;;23.77;3.50;;;;;;;12.51;91.81;100947.53;4954925;28;20050;-77
2022/07/15 00:24:33;;;;;;;9.48;2.15;;;;;;;12.51;91.66;100944.88;4958112;28;20420;-77
2022/07/15 00:27:02;;;;;;;3.53;1.40;;;;;;;12.48;91.37;100940.53;4988378;28;20035;-77
2022/07/15 00:29:29;;;;;;;2.90;1.60;;;;;;;12.51;91.41;100936.94;4986699;28;20046;-77
2022/07/15 00:31:56;;;;;;;2.33;1.35;;;;;;;12.50;91.50;100937.84;4979334;28;20423;-77
2022/07/15 00:34:23;;;;;;;4.20;1.83;;;;;;;12.56;90.84;100948.31;4977748;28;20043;-77
2022/07/15 00:36:50;;;;;;;2.95;1.50;;;;;;;12.53;91.13;100933.34;4964218;28;20039;-76
2022/07/15 00:39:17;;;;;;;3.95;1.85;;;;;;;12.51;91.09;100937.81;4955476;28;20047;-77
2022/07/15 00:41:44;;;;;;;3.28;1.60;;;;;;;12.52;90.98;100934.25;4972014;28;20042;-76
2022/07/15 00:44:11;;;;;;;3.50;1.77;;;;;;;12.47;91.62;100929.97;4963306;28;20046;-76
2022/07/15 00:46:40;;;;;;;3.40;1.63;;;;;;;12.48;91.31;100929.94;4952796;28;20027;-76
2022/07/15 00:49:09;;;;;;;4.70;1.95;;;;;;;12.48;91.57;100934.38;4967734;28;20077;-75
2022/07/15 00:51:47;;;;;;;6.93;2.28;;;;;;;12.43;91.76;100929.16;4959153;28;20044;-77
2022/07/15 00:54:15;;;;;;;3.08;1.30;;;;;;;12.40;92.03;100931.91;4971512;28;20048;-76
2022/07/15 00:56:47;;;;;;;4.72;1.55;;;;;;;12.43;92.08;100938.88;4939958;28;20039;-76
2022/07/15 00:59:14;;;;;;;4.68;1.70;;;;;;;12.31;92.48;100932.97;4986681;28;20047;-76
2022/07/15 01:01:42;;;;;;;2.80;1.50;;;;;;;12.27;93.06;100926.00;4981702;28;20034;-77
2022/07/15 01:04:09;;;;;;;2.53;1.50;;;;;;;12.19;93.56;100933.28;4975139;28;20209;-77
2022/07/15 01:06:36;;;;;;;4.22;1.90;;;;;;;12.17;93.80;100929.78;4979354;28;20041;-77
2022/07/15 01:09:03;;;;;;;3.05;1.10;;;;;;;12.12;94.38;100934.31;4977181;28;20042;-76
2022/07/15 01:11:30;;;;;;;4.50;1.50;;;;;;;12.12;94.83;100934.31;4961950;28;20145;-77
2022/07/15 01:13:58;;;;;;;4.78;1.63;;;;;;;12.02;95.13;100923.06;4962224;28;20042;-77
2022/07/15 01:16:25;;;;;;;4.53;1.83;;;;;;;12.13;95.05;100927.25;4980985;28;20391;-76
2022/07/15 01:18:52;;;;;;;5.30;2.15;;;;;;;12.02;95.07;100923.06;4944394;28;20088;-77
2022/07/15 01:21:20;;;;;;;6.22;2.50;;;;;;;12.00;95.52;100931.94;4973823;28;20038;-77
2022/07/15 01:23:46;;;;;;;2.28;1.40;;;;;;;12.08;95.51;100927.34;4969517;28;20046;-77
2022/07/15 01:26:14;;;;;;;2.95;1.50;;;;;;;11.99;95.46;100924.88;4975227;28;20436;-76
2022/07/15 01:28:41;;;;;;;3.92;1.90;;;;;;;11.90;96.29;100931.25;4968955;28;20042;-77
2022/07/15 01:31:08;;;;;;;4.40;2.13;;;;;;;11.82;96.95;100931.41;4948937;28;20043;-76
2022/07/15 01:33:36;;;;;;;5.10;1.77;;;;;;;11.87;97.13;100933.13;4948878;28;20058;-76
2022/07/15 01:36:03;;;;;;;3.28;1.77;;;;;;;11.83;97.70;100933.16;4972860;28;20056;-77
2022/07/15 01:38:30;;;;;;;7.03;1.88;;;;;;;11.81;98.02;100932.31;4958651;28;20515;-77
2022/07/15 01:40:57;;;;;;;4.65;2.10;;;;;;;11.80;98.06;100935.88;4958957;28;20045;-77
2022/07/15 01:43:24;;;;;;;3.95;1.75;;;;;;;11.81;98.59;100928.81;4958196;28;20054;-77
2022/07/15 01:45:51;;;;;;;3.15;1.50;;;;;;;11.71;98.78;100922.81;4957664;28;20045;-77
2022/07/15 01:51:02;;;;;;;3.42;1.67;;;;;;;11.64;99.95;100923.84;4960118;28;20038;-77
2022/07/15 01:53:32;;;;;;;5.70;2.30;;;;;;;11.66;100.00;100918.50;4964399;28;20060;-77
2022/07/15 01:56:05;;;;;;;2.83;1.92;;;;;;;11.68;99.69;100925.50;4973465;28;20053;-77
2022/07/15 01:58:32;;;;;;;7.07;2.20;;;;;;;11.76;100.00;100926.22;4961328;28;20480;-77
2022/07/15 02:00:59;;;;;;;2.55;1.65;;;;;;;11.82;100.00;100927.91;4979734;28;20042;-77
2022/07/15 02:03:26;;;;;;;3.58;1.80;;;;;;;11.88;99.65;100921.63;4979597;28;20046;-77
2022/07/15 02:05:53;;;;;;;1.80;1.40;;;;;;;11.98;98.48;100928.44;4980013;28;20403;-77
2022/07/15 02:08:20;;;;;;;2.53;1.40;;;;;;;12.03;98.09;100924.81;4977720;28;20053;-77
2022/07/15 02:10:46;;;;;;;4.65;2.28;;;;;;;12.05;98.25;100922.13;4970900;28;20047;-77
2022/07/15 02:13:13;;;;;;;4.53;1.58;;;;;;;12.13;97.11;100928.13;4945283;28;20053;-77
2022/07/15 02:15:40;;;;;;;4.55;1.67;;;;;;;12.18;96.48;100922.69;4966999;28;20513;-78
2022/07/15 02:18:08;;;;;;;4.55;1.88;;;;;;;12.14;96.18;100935.16;4981860;28;20034;-76
2022/07/15 02:20:34;;;;;;;4.50;1.85;;;;;;;12.09;97.00;100929.06;4975324;28;20049;-77
2022/07/15 02:23:01;;;;;;;5.53;2.00;;;;;;;12.10;96.77;100934.31;5005646;28;20061;-77
2022/07/15 02:25:30;;;;;;;5.53;2.15;;;;;;;11.99;97.26;100938.13;4966707;28;20525;-77
2022/07/15 02:27:59;;;;;;;5.72;2.42;;;;;;;12.03;97.35;100935.41;4965468;28;20042;-77
2022/07/15 02:30:32;;;;;;;4.43;2.08;;;;;;;11.96;97.78;100948.81;4963798;28;20065;-78
2022/07/15 02:32:59;;;;;;;6.33;2.10;;;;;;;11.92;97.92;100947.97;4993197;28;20077;-78
2022/07/15 02:35:27;;;;;;;3.22;1.50;;;;;;;11.81;98.93;100953.50;4964058;28;20042;-77
2022/07/15 02:37:53;;;;;;;6.45;2.83;;;;;;;11.77;99.58;100949.16;4938730;28;20042;-78
2022/07/15 02:40:21;;;;;;;5.00;2.83;;;;;;;11.80;99.60;100949.13;4987168;28;20046;-77
2022/07/15 02:42:50;;;;;;;6.30;2.70;;;;;;;11.67;100.00;100952.88;4973354;28;20577;-77
2022/07/15 02:45:19;;;;;;;4.18;1.80;;;;;;;11.65;100.00;100952.03;4968144;28;20042;-76
2022/07/15 02:47:46;;;;;;;5.20;2.15;;;;;;;11.53;100.00;100949.66;4974970;28;20030;-77
2022/07/15 02:50:14;;;;;;;5.10;1.88;;;;;;;11.51;100.00;100957.59;4981842;28;20407;-78
2022/07/15 02:52:41;;;;;;;5.57;1.90;;;;;;;11.53;100.00;100944.38;4976663;28;20467;-77
2022/07/15 02:55:09;;;;;;;5.25;2.35;;;;;;;11.54;100.00;100954.03;4990007;28;20039;-77
2022/07/15 02:57:36;;;;;;;5.70;1.83;;;;;;;11.53;100.00;100965.53;4957949;28;20042;-77
2022/07/15 03:00:05;;;;;;;7.07;2.40;;;;;;;11.54;100.00;100962.84;4959882;28;20410;-77
2022/07/15 03:02:32;;;;;;;5.95;1.90;;;;;;;11.48;100.00;100956.78;4958095;28;20043;-77
2022/07/15 03:05:00;;;;;;;6.40;2.55;;;;;;;11.48;100.00;100973.53;4945307;28;20050;-78
2022/07/15 03:07:30;;;;;;;5.97;2.35;;;;;;;11.44;100.00;100984.22;4963251;28;20035;-78
2022/07/15 03:09:57;;;;;;;3.72;1.90;;;;;;;11.45;100.00;100983.31;4958670;28;20093;-77
2022/07/15 03:12:24;;;;;;;7.15;2.20;;;;;;;11.40;100.00;100988.69;4950399;28;20050;-77
2022/07/15 03:14:50;;;;;;;4.65;2.33;;;;;;;11.42;100.00;100986.00;4956481;28;20058;-78
2022/07/15 03:17:18;;;;;;;5.80;2.15;;;;;;;11.39;100.00;100986.94;4980243;28;20030;-77
2022/07/15 03:19:45;;;;;;;4.85;2.00;;;;;;;11.39;100.00;100984.31;4959909;28;20574;-77
2022/07/15 03:22:12;;;;;;;4.38;2.50;;;;;;;11.40;100.00;100986.03;4992290;28;20057;-77
2022/07/15 03:24:38;;;;;;;4.57;2.15;;;;;;;11.33;100.00;100992.34;4961276;28;20045;-76
2022/07/15 03:27:05;;;;;;;5.90;2.05;;;;;;;11.33;100.00;100996.75;4965118;28;20034;-78
2022/07/15 03:29:32;;;;;;;8.60;2.08;;;;;;;11.26;100.00;100996.88;4944939;28;20395;-76
2022/07/15 03:31:59;;;;;;;6.28;1.95;;;;;;;11.28;100.00;100996.88;4975900;28;20046;-77
2022/07/15 03:34:25;;;;;;;5.55;2.28;;;;;;;11.37;100.00;100994.03;4977038;28;20046;-77
2022/07/15 03:36:53;;;;;;;6.63;2.92;;;;;;;11.31;100.00;100998.56;4974736;28;20487;-77
2022/07/15 03:39:21;;;;;;;6.25;1.95;;;;;;;11.31;100.00;101002.09;4965735;28;20452;-77
2022/07/15 03:41:47;;;;;;;7.15;2.25;;;;;;;11.34;100.00;100998.50;4976983;28;20050;-78
2022/07/15 03:44:15;;;;;;;8.35;2.17;;;;;;;11.25;100.00;101003.06;4977645;28;20057;-76
2022/07/15 03:46:41;;;;;;;6.18;2.30;;;;;;;11.31;100.00;101006.50;4963681;28;20034;-77
2022/07/15 03:49:08;;;;;;;2.88;1.85;;;;;;;11.30;100.00;101003.00;4974303;28;20045;-77
2022/07/15 03:51:35;;;;;;;6.80;1.98;;;;;;;11.28;100.00;101007.44;4969675;28;20476;-77
2022/07/15 03:54:03;;;;;;;8.20;2.17;;;;;;;11.31;100.00;101001.22;4941685;28;20054;-77
2022/07/15 03:56:30;;;;;;;7.55;1.90;;;;;;;11.33;100.00;101002.91;4978203;28;20034;-77
2022/07/15 03:58:57;;;;;;;3.58;1.98;;;;;;;11.30;100.00;101005.63;4973694;28;20046;-77
2022/07/15 04:01:23;;;;;;;5.13;2.70;;;;;;;11.36;100.00;101005.53;4975502;28;20145;-76
2022/07/15 04:03:51;;;;;;;8.95;2.03;;;;;;;11.41;100.00;101008.06;4958098;28;20058;-77
2022/07/15 04:06:19;;;;;;;5.85;2.15;;;;;;;11.41;100.00;101000.13;4974844;28;20515;-77
2022/07/15 04:08:47;;;;;;;3.92;2.28;;;;;;;11.41;100.00;101010.72;4980172;28;20985;-78
2022/07/15 04:11:14;;;;;;;5.20;1.92;;;;;;;11.45;100.00;101013.28;4965923;28;20036;-77
2022/07/15 04:13:41;;;;;;;3.20;1.90;;;;;;;11.44;100.00;101006.25;4961177;28;20093;-77
2022/07/15 04:16:11;;;;;;;5.53;1.90;;;;;;;11.54;100.00;101017.53;4952743;28;20687;-77
2022/07/15 04:18:38;;;;;;;5.00;2.72;;;;;;;11.51;100.00;101013.16;4977857;28;20054;-79
2022/07/15 04:21:05;;;;;;;8.13;2.00;;;;;;;11.52;100.00;101012.28;4956989;28;20038;-78
2022/07/15 04:23:33;;;;;;;5.55;2.20;;;;;;;11.60;100.00;101013.88;4997522;28;20049;-78
2022/07/15 04:26:00;;;;;;;5.13;2.13;;;;;;;11.69;100.00;101017.25;4973545;28;20049;-78
2022/07/15 04:28:26;;;;;;;6.40;2.10;;;;;;;11.71;100.00;101015.44;4963092;28;20035;-77
2022/07/15 04:30:53;;;;;;;3.17;1.77;;;;;;;11.69;100.00;101005.81;4965535;28;20053;-76
2022/07/15 04:33:20;;;;;;;3.85;1.85;;;;;;;11.71;100.00;101002.22;4942392;28;20530;-77
2022/07/15 04:35:48;;;;;;;5.53;2.08;;;;;;;11.82;100.00;101010.84;4956617;28;20566;-76
2022/07/15 04:38:14;;;;;;;47.05;6.45;;;;;;;11.87;100.00;101008.13;4975950;28;20045;-76
2022/07/15 04:40:42;;;;;;;9.55;2.15;;;;;;;11.89;100.00;101010.72;4986283;28;20096;-77
2022/07/15 04:43:24;;;;;;;4.22;1.90;;;;;;;11.91;100.00;101020.38;4973209;28;20068;-75
2022/07/15 04:45:50;;;;;;;3.95;1.80;;;;;;;12.05;100.00;101009.50;4902792;29;20128;-79
2022/07/15 04:51:10;;;;;;;5.13;1.60;;;;;;;12.18;100.00;101018.03;4896962;29;20524;-79
2022/07/15 04:53:39;;;;;;;7.90;2.65;;;;;;;12.21;99.94;101018.88;4915012;29;20095;-78
2022/07/15 04:56:05;;;;;;;3.42;1.75;;;;;;;12.31;98.63;101019.53;4939392;29;20043;-79
2022/07/15 04:58:32;;;;;;;5.28;1.90;;;;;;;12.42;98.52;101021.94;4915852;29;20042;-78
2022/07/15 05:00:59;;;;;;;5.07;2.60;;;;;;;12.51;97.91;101011.13;4912561;29;20046;-80
2022/07/15 05:03:26;;;;;;;5.32;1.70;;;;;;;12.90;95.79;101017.28;4930359;29;20040;-79
2022/07/15 05:05:52;;;;;;;6.40;2.20;;;;;;;13.60;90.17;101010.19;4898264;29;20139;-78
2022/07/15 05:08:20;;;;;;;3.75;1.80;;;;;;;13.71;88.35;101004.59;4930879;29;20050;-80
2022/07/15 05:10:47;;;;;;;4.65;1.80;;;;;;;13.57;88.33;101012.06;4931671;29;20457;-79
2022/07/15 05:13:14;;;;;;;5.20;1.60;;;;;;;13.36;88.77;101021.44;4916276;29;20048;-77
2022/07/15 05:15:41;;;;;;;7.03;1.58;;;;;;;13.27;89.37;101025.22;4899590;29;20135;-78
2022/07/15 05:18:07;;;;;;;4.47;1.67;;;;;;;13.22;90.34;101027.13;4912389;29;20516;-78
2022/07/15 05:20:34;;;;;;;4.90;1.80;;;;;;;13.14;90.48;101029.94;4916711;29;20089;-76
2022/07/15 05:23:01;;;;;;;5.88;1.80;;;;;;;13.11;91.54;101024.69;4930486;29;20121;-78
2022/07/15 05:25:28;;;;;;;5.35;1.88;;;;;;;13.13;92.31;101027.34;4899121;29;20121;-81
2022/07/15 05:27:54;;;;;;;5.40;2.22;;;;;;;13.22;91.42;101024.47;4917786;29;20150;-77
2022/07/15 05:30:21;;;;;;;5.65;2.05;;;;;;;13.41;89.80;101027.53;4911698;29;20420;-79
2022/07/15 05:32:48;;;;;;;4.82;1.48;;;;;;;13.57;89.16;101031.53;4930248;29;20055;-79
2022/07/15 05:35:15;;;;;;;4.72;1.50;;;;;;;13.79;87.38;101024.72;4897418;29;20077;-79
2022/07/15 05:37:42;;;;;;;6.82;2.75;;;;;;;14.03;85.78;101025.78;4918721;29;20039;-78
2022/07/15 05:40:10;;;;;;;5.38;1.65;;;;;;;14.16;84.11;101017.47;4900512;29;20043;-80
2022/07/15 05:42:38;;;;;;;5.03;1.23;;;;;;;14.96;81.19;101027.38;4936055;29;20710;-78
2022/07/15 05:45:05;;;;;;;6.65;1.75;;;;;;;16.88;70.22;101024.81;4933114;29;20048;-79
2022/07/15 05:47:32;;;;;;;5.18;1.88;;;;;;;19.00;61.45;101019.75;4905376;29;20054;-78
2022/07/15 05:49:59;;;;;;;6.65;1.40;;;;;;;20.84;52.75;101019.72;4929499;29;20093;-81
2022/07/15 05:52:26;;;;;;;3.38;1.40;;;;;;;21.97;48.48;101023.75;4905523;29;20094;-80
2022/07/15 05:54:52;;;;;;;5.20;1.20;;;;;;;23.08;45.33;101015.72;4934267;29;20052;-80
2022/07/15 05:57:19;;;;;;;4.32;1.20;;;;;;;23.76;42.31;101030.88;4936616;29;20044;-79
2022/07/15 05:59:46;;;;;;;4.75;1.15;;;;;;;24.80;39.83;101026.09;4914804;29;20052;-79
2022/07/15 06:02:13;;;;;;;8.55;1.45;;;;;;;24.43;41.57;101031.50;4934482;29;20048;-79
2022/07/15 06:04:41;;;;;;;3.63;1.38;;;;;;;22.34;44.87;101035.78;4903142;29;20123;-78
2022/07/15 06:07:08;;;;;;;5.28;1.52;;;;;;;19.98;50.23;101049.56;4919534;29;20469;-78
2022/07/15 06:09:36;;;;;;;3.70;1.42;;;;;;;19.45;54.12;101046.03;4915630;28;20613;-80
2022/07/15 06:12:03;;;;;;;2.88;1.30;;;;;;;18.76;55.14;101051.28;4921629;29;20505;-78
2022/07/15 06:14:29;;;;;;;2.20;1.20;;;;;;;18.14;57.10;101058.59;4914121;29;20047;-79
2022/07/15 06:17:03;;;;;;;4.45;1.88;;;;;;;18.05;59.60;101058.13;4904447;29;20047;-80
2022/07/15 06:19:30;;;;;;;2.65;1.50;;;;;;;18.00;58.81;101061.91;4906000;29;20081;-80
2022/07/15 06:21:57;;;;;;;3.03;1.50;;;;;;;17.37;61.25;101068.19;4918194;29;20040;-78
2022/07/15 06:24:23;;;;;;;3.15;1.70;;;;;;;16.77;63.78;101065.28;4902688;29;20044;-79
2022/07/15 06:26:51;;;;;;;4.20;1.20;;;;;;;16.77;64.45;101080.44;4916731;29;20134;-81
2022/07/15 06:29:18;;;;;;;5.18;2.00;;;;;;;16.94;64.26;101069.97;4916266;29;20040;-79
2022/07/15 06:31:44;;;;;;;4.90;1.73;;;;;;;16.96;64.42;101068.09;4910520;29;20146;-80
2022/07/15 06:34:11;;;;;;;4.43;1.70;;;;;;;17.00;62.67;101069.72;4917260;29;20063;-79
2022/07/15 06:36:38;;;;;;;8.32;1.80;;;;;;;17.32;62.49;101063.06;4899019;29;20043;-79
2022/07/15 06:39:05;;;;;;;4.03;1.98;;;;;;;17.34;61.35;101066.53;4914500;29;20082;-80
2022/07/15 06:41:31;;;;;;;4.05;1.27;;;;;;;18.03;61.08;101065.38;4899691;29;20057;-77
2022/07/15 06:43:59;;;;;;;2.00;1.27;;;;;;;18.51;57.37;101075.63;4935203;29;20035;-78
2022/07/15 06:46:26;;;;;;;4.82;1.30;;;;;;;18.64;57.69;101059.84;4927868;29;20123;-78
2022/07/15 06:48:53;;;;;;;7.45;1.98;;;;;;;18.54;53.96;101070.13;4920594;29;20265;-79
2022/07/15 06:51:19;;;;;;;4.05;1.30;;;;;;;18.86;55.41;101071.31;4908042;29;20054;-81
2022/07/15 06:53:46;;;;;;;2.47;1.48;;;;;;;18.86;54.55;101068.63;4916636;29;20043;-80
2022/07/15 06:56:13;;;;;;;8.60;1.92;;;;;;;18.47;54.94;101088.25;4917961;29;20047;-77
2022/07/15 06:58:39;;;;;;;2.92;1.35;;;;;;;18.72;56.31;101079.97;4932405;29;20063;-80
2022/07/15 07:01:07;;;;;;;3.92;1.15;;;;;;;18.97;53.04;101082.34;4903811;29;20040;-80
2022/07/15 07:03:34;;;;;;;3.58;1.25;;;;;;;18.73;53.74;101086.19;4905529;29;20052;-80
2022/07/15 07:06:22;;;;;;;2.80;1.10;;;;;;;19.18;53.84;101080.44;4904174;29;20046;-82
2022/07/15 07:08:49;;;;;;;2.80;1.23;;;;;;;19.29;52.17;101087.94;4905704;29;20039;-78
2022/07/15 07:11:19;;;;;;;3.33;1.27;;;;;;;19.25;50.88;101072.94;4917662;29;20052;-78
2022/07/15 07:13:47;;;;;;;5.70;1.35;;;;;;;19.44;51.89;101079.13;4903648;29;20143;-79
2022/07/15 07:16:14;;;;;;;2.00;1.15;;;;;;;19.38;50.53;101083.00;4907918;29;20104;-81
2022/07/15 07:18:41;;;;;;;4.55;1.20;;;;;;;19.33;50.16;101071.63;4918559;29;20040;-80
2022/07/15 07:21:08;;;;;;;5.03;1.30;;;;;;;19.19;49.71;101079.50;4907075;29;20036;-78
2022/07/15 07:23:35;;;;;;;6.00;1.33;;;;;;;19.00;49.26;101076.88;4906868;29;20056;-81
2022/07/15 07:26:03;;;;;;;3.42;1.10;;;;;;;18.84;48.95;101079.41;4916065;29;20059;-78
2022/07/15 07:28:30;;;;;;;4.40;1.50;;;;;;;18.62;49.81;101075.13;4920741;29;20038;-80
2022/07/15 07:31:01;;;;;;;3.53;1.02;;;;;;;18.40;49.40;101076.09;4909384;29;20051;-81
2022/07/15 07:33:30;;;;;;;5.07;1.33;;;;;;;18.57;49.42;101069.97;4919456;29;20058;-82
2022/07/15 07:35:57;;;;;;;3.17;1.20;;;;;;;18.55;49.43;101070.03;4926049;29;20392;-79
2022/07/15 07:38:24;;;;;;;1.88;1.05;;;;;;;18.62;49.04;101084.00;4921276;29;20716;-79
2022/07/15 07:40:51;;;;;;;9.15;1.85;;;;;;;18.49;49.95;101078.34;4936097;29;20044;-81
2022/07/15 07:43:18;;;;;;;2.10;1.00;;;;;;;18.37;50.40;101084.28;4913763;29;20043;-81
2022/07/15 07:45:46;;;;;;;4.72;1.58;;;;;;;18.29;49.10;101083.75;4916109;29;20487;-81
2022/07/15 07:48:13;;;;;;;2.17;1.00;;;;;;;18.25;50.35;101084.88;4902650;29;20043;-79
2022/07/15 07:50:40;;;;;;;4.70;1.20;;;;;;;18.00;50.31;101080.63;4922841;29;20432;-80
2022/07/15 07:53:07;;;;;;;2.70;1.20;;;;;;;17.56;51.48;101079.81;4890166;29;20048;-81
2022/07/15 07:55:34;;;;;;;1.15;0.80;;;;;;;17.62;53.02;101087.59;4874604;29;20049;-79
2022/07/15 07:58:01;;;;;;;3.03;1.00;;;;;;;17.78;52.10;101077.13;4922830;29;20035;-82
2022/07/15 08:00:30;;;;;;;11.05;1.90;;;;;;;17.93;52.64;101086.28;4924364;29;20095;-82
2022/07/15 08:02:58;;;;;;;2.38;1.15;;;;;;;17.34;52.09;101090.56;4889085;29;20052;-80
2022/07/15 08:05:26;;;;;;;5.53;1.20;;;;;;;17.36;52.93;101099.38;4905250;29;20050;-79
2022/07/15 08:08:13;;;;;;;1.85;0.82;;;;;;;17.36;51.53;101102.03;4906020;29;20490;-78
2022/07/15 08:10:42;;;;;;;3.42;1.13;;;;;;;17.32;49.35;101104.88;4920925;29;20501;-80
2022/07/15 08:13:14;;;;;;;5.07;1.42;;;;;;;17.33;48.17;101094.16;4919447;29;20040;-83
2022/07/15 08:15:43;;;;;;;3.10;0.80;;;;;;;17.29;47.97;101105.03;4910249;29;20047;-79
2022/07/15 08:18:10;;;;;;;4.07;0.90;;;;;;;17.72;48.38;101105.00;4923715;29;20040;-80
2022/07/15 08:20:37;;;;;;;3.00;1.00;;;;;;;18.62;46.24;101096.53;4913310;29;20058;-78
2022/07/15 08:23:05;;;;;;;2.60;0.85;;;;;;;19.01;44.98;101092.00;4917784;29;20409;-80
2022/07/15 08:25:37;;;;;;;3.55;1.33;;;;;;;19.25;45.37;101099.75;4917673;29;20055;-81
2022/07/15 08:28:08;;;;;;;1.55;0.93;;;;;;;18.68;45.47;101105.19;4921202;29;20039;-80
2022/07/15 08:30:35;;;;;;;11.70;1.40;;;;;;;18.35;45.80;101118.28;4908564;29;20460;-79
2022/07/15 08:33:02;;;;;;;2.83;0.98;;;;;;;18.24;46.52;101116.09;4899796;29;20142;-79
2022/07/15 08:35:30;;;;;;;1.95;1.00;;;;;;;18.62;44.93;101104.56;4919198;29;20044;-81
2022/07/15 08:37:57;;;;;;;2.70;1.20;;;;;;;18.55;45.89;101118.22;4902010;29;20130;-78
2022/07/15 08:40:24;;;;;;;2.75;1.00;;;;;;;18.72;45.71;101114.78;4899178;29;20054;-79
2022/07/15 08:42:51;;;;;;;4.13;1.00;;;;;;;19.03;45.72;101105.28;4928169;29;20074;-79
2022/07/15 08:45:18;;;;;;;2.60;0.90;;;;;;;18.89;44.86;101105.94;4918148;29;20054;-79
2022/07/15 08:47:46;;;;;;;2.25;0.88;;;;;;;18.60;45.75;101109.97;4923001;29;20048;-79
2022/07/15 08:50:20;;;;;;;1.92;0.90;;;;;;;18.96;45.42;101096.69;4917658;29;20131;-80
2022/07/15 08:52:47;;;;;;;2.38;0.85;;;;;;;19.28;44.20;101094.25;4917540;29;20047;-79
2022/07/15 08:55:15;;;;;;;1.10;0.75;;;;;;;19.43;43.80;101096.16;4932096;29;20043;-82
2022/07/15 08:57:47;;;;;;;6.30;1.33;;;;;;;19.56;43.97;101105.34;4916693;29;20051;-78
2022/07/15 09:00:14;;;;;;;2.22;1.00;;;;;;;19.17;44.24;101109.97;4906452;29;20099;-79
2022/07/15 09:02:40;;;;;;;1.58;1.20;;;;;;;18.90;44.74;101117.53;4904347;29;20171;-80
2022/07/15 09:05:30;;;;;;;4.55;1.10;;;;;;;18.60;44.79;101119.81;4898015;29;20052;-78
2022/07/15 09:07:58;;;;;;;1.30;0.75;;;;;;;19.00;46.57;101113.47;4904293;29;20059;-78
2022/07/15 09:10:43;;;;;;;2.17;1.00;;;;;;;19.64;45.07;101124.56;4915054;29;20655;-80
2022/07/15 09:13:30;;;;;;;1.38;0.95;;;;;;;20.18;41.55;101117.31;4916605;29;20043;-78
2022/07/15 09:16:02;;;;;;;3.78;0.90;;;;;;;20.27;41.51;101109.72;4930273;29;20079;-78
2022/07/15 09:18:33;;;;;;;1.75;1.05;;;;;;;20.51;40.85;101111.09;4931602;29;20396;-79
2022/07/15 09:21:01;;;;;;;2.00;0.80;;;;;;;20.44;40.38;101121.31;4898947;29;20040;-80
2022/07/15 09:23:30;;;;;;;1.52;0.80;;;;;;;20.01;42.08;101121.81;4914634;29;20175;-79
2022/07/15 09:26:29;;;;;;;2.05;0.65;;;;;;;19.81;42.79;101123.72;4905927;29;20044;-80
2022/07/15 09:28:57;;;;;;;3.95;1.35;;;;;;;19.31;45.80;101129.78;4913513;29;20240;-79
2022/07/15 09:34:16;;;;;;;1.90;0.90;;;;;;;19.10;46.76;101136.19;4937695;29;20043;-81
2022/07/15 09:36:50;;;;;;;2.03;0.93;;;;;;;19.10;47.28;101125.50;4915872;29;20044;-80
2022/07/15 09:39:28;;;;;;;1.88;0.90;;;;;;;19.11;46.88;101120.06;4909927;29;20044;-80
2022/07/15 09:41:56;;;;;;;1.67;1.05;;;;;;;19.40;47.40;101134.69;4921870;29;20050;-79
2022/07/15 09:44:31;;;;;;;1.60;0.80;;;;;;;19.71;45.42;101121.59;4933074;29;20043;-82
2022/07/15 09:47:03;;;;;;;2.22;0.82;;;;;;;19.88;45.34;101141.22;4918331;29;20064;-80
2022/07/15 09:49:32;;;;;;;3.40;1.20;;;;;;;19.91;45.28;101141.06;4919993;29;20051;-79
2022/07/15 09:52:03;;;;;;;3.03;1.08;;;;;;;19.68;45.75;101146.75;4941899;29;20050;-79
2022/07/15 09:54:35;;;;;;;2.78;1.15;;;;;;;19.70;45.73;101142.19;4911206;28;20039;-82
2022/07/15 09:57:05;;;;;;;1.75;1.30;;;;;;;19.49;45.50;101137.84;4909094;29;20107;-82
2022/07/15 09:59:35;;;;;;;1.90;0.85;;;;;;;19.63;44.40;101140.75;4903716;29;20039;-79
2022/07/15 10:02:11;;;;;;;2.92;1.02;;;;;;;20.05;43.79;101136.81;4909394;29;20130;-81
2022/07/15 10:04:47;;;;;;;2.17;0.93;;;;;;;20.99;40.00;101134.34;4926862;29;20048;-80
2022/07/15 10:07:16;;;;;;;2.15;1.05;;;;;;;21.13;39.63;101138.09;4917976;29;20052;-79
2022/07/15 10:09:55;;;;;;;3.28;1.35;;;;;;;20.46;39.71;101134.66;4930343;29;20050;-81
2022/07/15 10:12:46;;;;;;;1.80;0.90;;;;;;;20.11;40.87;101140.03;4924375;29;20046;-79
2022/07/15 10:15:28;;;;;;;3.30;1.00;;;;;;;19.87;41.95;101150.22;4928574;29;20039;-81
2022/07/15 10:18:22;;;;;;;4.18;1.27;;;;;;;19.88;42.50;101141.22;4921967;29;20155;-79
2022/07/15 10:21:00;;;;;;;;;;;;;;;19.80;43.47;101150.63;4940042;29;20063;-81
2022/07/15 10:23:42;;;;;;;2.45;0.88;;;;;;;19.63;43.63;101146.97;4950092;29;19923;-79
2022/07/15 10:26:23;;;;;;;2.65;0.88;;;;;;;19.25;44.00;101143.47;4939351;29;20047;-80
2022/07/15 10:28:56;;;;;;;2.58;1.08;;;;;;;19.49;45.10;101149.44;4927470;29;20055;-81
2022/07/15 10:31:28;;;;;;;2.33;1.00;;;;;;;19.82;43.15;101141.53;4909878;29;20043;-80
2022/07/15 10:34:04;;;;;;;6.70;5.90;;;;;;;19.88;42.22;101143.03;4915672;29;20155;-81
2022/07/15 10:36:53;;;;;;;1.67;1.58;;;;;;;19.76;42.72;101144.56;4946167;29;20036;-80
2022/07/15 10:39:21;;;;;;;4.00;1.10;;;;;;;19.61;42.74;101135.47;4927265;29;20035;-80
2022/07/15 10:41:52;;;;;;;5.00;1.20;;;;;;;19.50;44.09;101145.81;4943647;29;20059;-81
2022/07/15 10:44:19;;;;;;;5.22;1.50;;;;;;;19.37;45.02;101150.91;4914138;29;20118;-80
2022/07/15 10:46:46;;;;;;;2.13;1.00;;;;;;;19.22;45.59;101156.16;4916036;29;20058;-80
2022/07/15 10:49:15;;;;;;;3.05;1.52;;;;;;;19.35;45.31;101139.41;4923750;29;20054;-80
2022/07/15 10:51:44;;;;;;;2.67;1.00;;;;;;;19.66;44.75;101144.13;4943060;29;20051;-79
2022/07/15 10:54:31;;;;;;;4.03;0.98;;;;;;;20.42;42.98;101127.66;4929059;29;20544;-80
2022/07/15 10:56:57;;;;;;;1.65;1.00;;;;;;;21.17;39.61;101132.44;4941390;23;20051;-78
2022/07/15 10:59:25;;;;;;;3.75;1.20;;;;;;;20.89;38.45;101129.59;4950409;28;20046;-78
2022/07/15 11:02:00;;;;;;;2.28;1.00;;;;;;;20.95;39.49;101134.63;4939788;29;20403;-78
2022/07/15 11:04:29;;;;;;;0.80;0.80;;;;;;;20.70;38.97;101136.00;4954050;28;20047;-77
2022/07/15 11:07:11;;;;;;;1.75;0.80;;;;;;;20.62;39.68;101126.63;4949768;28;20452;-78
2022/07/15 11:10:10;;;;;;;48.80;6.93;;;;;;;20.47;40.10;101134.56;4972929;28;20035;-78
2022/07/15 11:12:36;;;;;;;3.33;0.90;;;;;;;20.45;40.94;101138.28;4913379;29;20047;-77
2022/07/15 11:15:14;;;;;;;1.63;0.75;;;;;;;20.55;40.70;101134.16;4982185;28;20043;-78
2022/07/15 11:17:43;;;;;;;2.80;0.95;;;;;;;20.70;41.61;101141.38;4925081;28;20590;-78
2022/07/15 11:20:14;;;;;;;4.30;0.90;;;;;;;20.90;40.06;101137.56;4940720;28;20047;-79
2022/07/15 11:22:47;;;;;;;5.32;1.10;;;;;;;21.32;39.31;101120.84;4941426;29;20138;-78
2022/07/15 11:25:24;;;;;;;3.08;1.08;;;;;;;21.97;39.01;101125.97;4967379;28;20051;-79
2022/07/15 11:28:01;;;;;;;3.88;1.10;;;;;;;22.30;38.07;101122.22;4937743;29;20043;-77
2022/07/15 11:30:34;;;;;;;2.45;0.98;;;;;;;22.27;37.62;101127.78;4950724;28;20075;-79
2022/07/15 11:33:02;;;;;;;3.15;1.25;;;;;;;21.97;37.79;101122.44;4932788;29;20070;-77
2022/07/15 11:35:29;;;;;;;6.70;1.50;;;;;;;21.54;38.68;101130.38;4935092;28;20058;-77
2022/07/15 11:38:02;;;;;;;4.25;0.98;;;;;;;21.29;39.05;101128.25;4969027;28;20086;-77
2022/07/15 11:46:05;;;;;;;2.08;0.90;;;;;;;20.67;41.18;101133.47;4945681;28;20085;-76
2022/07/15 11:48:40;;;;;;;16.73;2.65;;;;;;;20.98;41.65;101140.69;4935393;29;20465;-78
2022/07/15 11:51:09;;;;;;;32.85;5.32;;;;;;;21.12;39.76;101139.06;4936492;29;20118;-77